Time;durP1;ratioP1;P1;durP2;ratioP2;P2;SDS_P1;SDS_P2;PMS_P1;PMS_P2;Temp;Humidity;BMP_temperature;BMP_pressure;BME280_temperature;BME280_humidity;BME280_pressure;Samples;Min_cycle;Max_cycle;Signal;HPM_P1;HPM_P2
2021/05/19 00:00:35;;;;;;;10.23;7.03;;;8.70;99.90;;;;;;6091038;23;20026;-88
2021/05/19 00:03:01;;;;;;;9.18;7.03;;;8.60;99.90;;;;;;6100131;23;20065;-86
2021/05/19 00:05:28;;;;;;;16.15;7.88;;;8.60;99.90;;;;;;6100149;23;20049;-88
2021/05/19 00:07:55;;;;;;;13.65;8.10;;;8.60;99.90;;;;;;6106831;23;20022;-87
2021/05/19 00:10:22;;;;;;;14.95;8.02;;;8.60;99.90;;;;;;6097870;23;20050;-88
2021/05/19 00:12:49;;;;;;;14.18;8.70;;;8.60;99.90;;;;;;6074601;23;20026;-87
2021/05/19 00:15:15;;;;;;;12.13;8.82;;;8.50;99.90;;;;;;6100212;23;20100;-86
2021/05/19 00:17:44;;;;;;;11.75;8.20;;;8.50;99.90;;;;;;6096088;23;20101;-87
2021/05/19 00:20:14;;;;;;;12.27;8.13;;;8.50;99.90;;;;;;6097816;23;20041;-87
2021/05/19 00:22:41;;;;;;;16.65;9.48;;;8.50;99.90;;;;;;6098219;23;20026;-87
2021/05/19 00:25:09;;;;;;;13.85;8.88;;;8.40;99.90;;;;;;6096260;23;20042;-87
2021/05/19 00:27:35;;;;;;;12.27;8.60;;;8.40;99.90;;;;;;6096812;23;20041;-87
2021/05/19 00:30:04;;;;;;;14.85;9.77;;;8.40;99.90;;;;;;6122604;23;20406;-88
2021/05/19 00:32:33;;;;;;;16.70;9.10;;;8.40;99.90;;;;;;6069093;23;20033;-88
2021/05/19 00:35:03;;;;;;;11.23;8.75;;;8.30;99.90;;;;;;6126709;23;20038;-85
2021/05/19 00:37:30;;;;;;;14.07;8.80;;;8.30;99.90;;;;;;6109699;23;20017;-87
2021/05/19 00:39:57;;;;;;;15.48;9.93;;;8.30;99.90;;;;;;6105742;23;20063;-87
2021/05/19 00:42:24;;;;;;;16.65;9.30;;;8.30;99.90;;;;;;6110312;23;19998;-87
2021/05/19 00:44:51;;;;;;;13.50;8.45;;;8.30;99.90;;;;;;6096995;23;20089;-88
2021/05/19 00:47:34;;;;;;;14.23;8.57;;;8.30;99.90;;;;;;6096468;23;20447;-87
2021/05/19 00:50:02;;;;;;;18.52;8.60;;;8.30;99.90;;;;;;6095808;23;20024;-87
2021/05/19 00:52:29;;;;;;;12.45;8.40;;;8.30;99.90;;;;;;6120696;23;20022;-87
2021/05/19 00:54:56;;;;;;;14.80;9.63;;;8.30;99.90;;;;;;6094233;23;20014;-87
2021/05/19 00:57:23;;;;;;;17.35;10.25;;;8.30;99.90;;;;;;6096461;23;20056;-88
2021/05/19 00:59:50;;;;;;;14.40;9.88;;;8.30;99.90;;;;;;6095660;23;20014;-88
2021/05/19 01:02:17;;;;;;;12.38;8.48;;;8.20;99.90;;;;;;6096512;23;20018;-86
2021/05/19 01:04:45;;;;;;;13.88;9.40;;;8.30;99.90;;;;;;6096772;23;20022;-87
2021/05/19 01:07:29;;;;;;;14.32;9.93;;;8.30;99.90;;;;;;6095162;23;20045;-87
2021/05/19 01:09:56;;;;;;;13.88;9.38;;;8.30;99.90;;;;;;6095912;23;20454;-87
2021/05/19 01:12:24;;;;;;;17.63;10.55;;;8.30;99.90;;;;;;6095185;23;20115;-87
2021/05/19 01:14:53;;;;;;;15.65;9.93;;;8.30;99.90;;;;;;6093996;23;20028;-87
2021/05/19 01:17:21;;;;;;;17.05;10.35;;;8.30;99.90;;;;;;6095125;23;20025;-88
2021/05/19 01:19:52;;;;;;;14.93;10.15;;;8.30;99.90;;;;;;6094262;23;20081;-88
2021/05/19 01:22:19;;;;;;;14.40;9.57;;;8.30;99.90;;;;;;6073071;23;20022;-88
2021/05/19 01:24:49;;;;;;;15.63;9.02;;;8.30;99.90;;;;;;6094047;23;20061;-88
2021/05/19 01:27:16;;;;;;;17.63;11.00;;;8.30;99.90;;;;;;6094126;23;20014;-87
2021/05/19 01:29:48;;;;;;;17.98;10.30;;;8.30;99.90;;;;;;6093401;23;20032;-87
2021/05/19 01:32:15;;;;;;;16.50;9.88;;;8.30;99.90;;;;;;6094934;23;20025;-87
2021/05/19 01:34:43;;;;;;;14.18;10.27;;;8.30;99.90;;;;;;6094377;23;20084;-87
2021/05/19 01:37:13;;;;;;;15.98;9.98;;;8.30;99.90;;;;;;6092745;23;20022;-88
2021/05/19 01:39:44;;;;;;;18.00;10.82;;;8.30;99.90;;;;;;6092736;23;20021;-89
2021/05/19 01:42:12;;;;;;;17.25;10.82;;;8.30;99.90;;;;;;6092489;23;20010;-88
2021/05/19 01:44:40;;;;;;;16.77;10.85;;;8.30;99.90;;;;;;6093741;23;20503;-88
2021/05/19 01:47:08;;;;;;;21.17;10.55;;;8.40;99.90;;;;;;6093360;23;20021;-88
2021/05/19 01:49:43;;;;;;;17.15;10.80;;;8.40;99.90;;;;;;6094859;23;20060;-88
2021/05/19 01:52:12;;;;;;;17.42;10.85;;;8.40;99.90;;;;;;6098432;23;20085;-88
2021/05/19 01:54:42;;;;;;;15.75;10.57;;;8.50;99.90;;;;;;6099120;23;20033;-87
2021/05/19 01:57:10;;;;;;;18.77;10.68;;;8.50;99.90;;;;;;6099744;23;20033;-88
2021/05/19 01:59:37;;;;;;;16.33;10.80;;;8.50;99.90;;;;;;6097549;23;20053;-87
2021/05/19 02:02:04;;;;;;;17.35;9.93;;;8.60;99.90;;;;;;6096845;23;20006;-87
2021/05/19 02:04:31;;;;;;;15.38;9.82;;;8.60;99.90;;;;;;6096753;23;20462;-87
2021/05/19 02:06:59;;;;;;;15.90;10.45;;;8.60;99.90;;;;;;6096070;23;20017;-88
2021/05/19 02:09:27;;;;;;;15.60;9.73;;;8.70;99.90;;;;;;6100475;23;20053;-87
2021/05/19 02:11:55;;;;;;;14.68;10.48;;;8.70;99.90;;;;;;6098814;23;20022;-87
2021/05/19 02:14:22;;;;;;;13.20;9.38;;;8.80;99.90;;;;;;6116922;23;20097;-88
2021/05/19 02:16:50;;;;;;;12.60;8.93;;;8.80;99.90;;;;;;6092944;23;20037;-87
2021/05/19 02:19:17;;;;;;;16.38;9.63;;;8.80;99.90;;;;;;6098530;23;20049;-87
2021/05/19 02:21:48;;;;;;;17.42;9.63;;;8.90;99.90;;;;;;6093137;23;20450;-87
2021/05/19 02:24:16;;;;;;;14.90;9.75;;;9.00;99.90;;;;;;6092510;23;20351;-86
2021/05/19 02:26:44;;;;;;;14.73;8.95;;;9.00;99.90;;;;;;6093370;23;20025;-87
2021/05/19 02:29:12;;;;;;;13.75;9.73;;;9.00;99.90;;;;;;6121074;23;20038;-87
2021/05/19 02:31:40;;;;;;;12.13;9.20;;;9.10;99.90;;;;;;6094606;23;20422;-88
2021/05/19 02:34:07;;;;;;;14.48;8.75;;;9.10;99.90;;;;;;6092245;23;20022;-88
2021/05/19 02:36:35;;;;;;;19.02;8.95;;;9.10;99.90;;;;;;6092377;23;20022;-89
2021/05/19 02:39:05;;;;;;;13.05;9.05;;;9.10;99.90;;;;;;6092657;23;20026;-89
2021/05/19 02:41:32;;;;;;;9.93;8.27;;;9.20;99.90;;;;;;6090352;23;20061;-87
2021/05/19 02:43:59;;;;;;;14.82;9.45;;;9.20;99.90;;;;;;6094201;23;20088;-88
2021/05/19 02:46:26;;;;;;;11.88;8.20;;;9.30;99.90;;;;;;6092833;23;20026;-88
2021/05/19 02:49:01;;;;;;;14.73;9.35;;;9.30;99.90;;;;;;6093564;23;20042;-88
2021/05/19 02:51:32;;;;;;;14.95;10.25;;;9.30;99.90;;;;;;6093575;23;20473;-88
2021/05/19 02:54:00;;;;;;;16.90;10.13;;;9.30;99.90;;;;;;6093341;23;20398;-87
2021/05/19 02:56:27;;;;;;;15.18;9.98;;;9.30;99.90;;;;;;6120618;23;20057;-88
2021/05/19 02:58:54;;;;;;;12.80;9.88;;;9.30;99.90;;;;;;6091843;23;20050;-88
2021/05/19 03:01:21;;;;;;;13.52;10.00;;;9.40;99.90;;;;;;6099713;23;20057;-87
2021/05/19 03:03:48;;;;;;;18.33;9.82;;;9.40;99.90;;;;;;6104251;23;20033;-86
2021/05/19 03:06:14;;;;;;;13.88;9.45;;;9.40;99.90;;;;;;6106877;23;20006;-87
2021/05/19 03:08:41;;;;;;;14.00;10.40;;;9.40;99.90;;;;;;6103740;23;20407;-88
2021/05/19 03:11:09;;;;;;;17.52;10.80;;;9.40;99.90;;;;;;6103097;23;20441;-88
2021/05/19 03:13:36;;;;;;;13.18;9.57;;;9.40;99.90;;;;;;6102950;23;20092;-87
2021/05/19 03:16:05;;;;;;;15.20;10.90;;;9.40;99.90;;;;;;6101907;23;20037;-88
2021/05/19 03:18:33;;;;;;;17.55;11.68;;;9.40;99.90;;;;;;6127953;23;20037;-88
2021/05/19 03:21:01;;;;;;;20.02;10.85;;;9.40;99.90;;;;;;6101591;23;20033;-88
2021/05/19 03:23:29;;;;;;;18.83;11.57;;;9.40;99.90;;;;;;6101293;23;20022;-87
2021/05/19 03:25:57;;;;;;;16.60;11.88;;;9.40;99.90;;;;;;6103201;23;20026;-88
2021/05/19 03:28:24;;;;;;;18.38;11.90;;;9.40;99.90;;;;;;6101449;23;20026;-87
2021/05/19 03:30:51;;;;;;;19.80;11.32;;;9.40;99.90;;;;;;6102742;23;20082;-88
2021/05/19 03:33:19;;;;;;;23.58;11.82;;;9.40;99.90;;;;;;6100251;23;20045;-88
2021/05/19 03:35:47;;;;;;;18.92;11.85;;;9.40;99.90;;;;;;6087743;23;20063;-88
2021/05/19 03:38:14;;;;;;;25.70;12.85;;;9.50;99.90;;;;;;6078118;23;20037;-87
2021/05/19 03:40:42;;;;;;;23.38;12.55;;;9.50;99.90;;;;;;6103621;23;20077;-88
2021/05/19 03:43:09;;;;;;;25.75;14.38;;;9.50;99.90;;;;;;6095674;23;20479;-88
2021/05/19 03:45:36;;;;;;;26.77;13.60;;;9.50;99.90;;;;;;6095914;23;22113;-88
2021/05/19 03:48:03;;;;;;;26.75;13.98;;;9.40;99.90;;;;;;6097711;23;20076;-88
2021/05/19 03:50:30;;;;;;;30.05;14.90;;;9.40;99.90;;;;;;6123188;23;20097;-89
2021/05/19 03:52:59;;;;;;;30.08;15.57;;;9.40;99.90;;;;;;6094270;23;20097;-88
2021/05/19 03:55:27;;;;;;;27.30;14.90;;;9.40;99.90;;;;;;6095887;23;20030;-88
2021/05/19 03:57:55;;;;;;;30.58;16.05;;;9.30;99.90;;;;;;6096701;23;20033;-87
2021/05/19 04:00:25;;;;;;;29.23;16.15;;;9.30;99.90;;;;;;6095186;23;20089;-88
2021/05/19 04:02:52;;;;;;;33.50;17.48;;;9.30;99.90;;;;;;6095749;23;20350;-88
2021/05/19 04:05:25;;;;;;;31.00;15.25;;;9.30;99.90;;;;;;6094203;23;20069;-88
2021/05/19 04:07:53;;;;;;;31.48;15.98;;;9.30;99.90;;;;;;6091927;23;20050;-88
2021/05/19 04:10:22;;;;;;;31.10;17.50;;;9.30;99.90;;;;;;6094291;23;22127;-88
2021/05/19 04:12:50;;;;;;;35.33;17.42;;;9.40;99.90;;;;;;6093237;23;20022;-89
2021/05/19 04:15:23;;;;;;;35.28;17.08;;;9.40;99.90;;;;;;6093928;23;20040;-88
2021/05/19 04:17:50;;;;;;;35.03;16.88;;;9.40;99.90;;;;;;6091336;23;20446;-89
2021/05/19 04:20:18;;;;;;;28.00;15.38;;;9.40;99.90;;;;;;6091593;23;20050;-89
2021/05/19 04:22:45;;;;;;;33.55;16.15;;;9.50;99.90;;;;;;6094369;23;20097;-89
2021/05/19 04:25:13;;;;;;;36.28;16.10;;;9.60;99.90;;;;;;6083152;23;20033;-88
2021/05/19 04:27:40;;;;;;;29.83;17.27;;;9.60;99.90;;;;;;6094214;23;20026;-87
2021/05/19 04:30:09;;;;;;;34.33;16.60;;;9.70;99.90;;;;;;6069226;23;20018;-88
2021/05/19 04:32:36;;;;;;;39.22;16.80;;;9.70;99.90;;;;;;6092837;23;20025;-88
2021/05/19 04:35:05;;;;;;;32.15;16.95;;;9.80;99.90;;;;;;6092425;23;20030;-87
2021/05/19 04:37:31;;;;;;;33.85;16.45;;;9.90;99.90;;;;;;6092246;23;20045;-88
2021/05/19 04:39:58;;;;;;;35.75;17.55;;;9.90;99.90;;;;;;6092763;23;20105;-87
2021/05/19 04:42:25;;;;;;;34.08;16.33;;;10.00;99.90;;;;;;6094369;23;20001;-88
2021/05/19 04:44:52;;;;;;;30.30;17.05;;;10.00;99.90;;;;;;6091699;23;20132;-88
2021/05/19 04:47:19;;;;;;;32.92;16.42;;;10.10;99.90;;;;;;6093728;23;20022;-89
2021/05/19 04:49:46;;;;;;;33.25;17.35;;;10.20;99.90;;;;;;6092882;23;20066;-88
2021/05/19 04:52:13;;;;;;;36.58;16.13;;;10.20;99.90;;;;;;6092620;23;20038;-89
2021/05/19 04:54:40;;;;;;;38.30;17.10;;;10.20;99.90;;;;;;6093611;23;20045;-88
2021/05/19 04:57:06;;;;;;;35.40;17.05;;;10.30;99.90;;;;;;6097711;23;20026;-87
2021/05/19 04:59:33;;;;;;;42.40;19.88;;;10.30;99.90;;;;;;6100400;23;20033;-87
2021/05/19 05:02:05;;;;;;;34.13;17.58;;;10.30;99.90;;;;;;6097605;23;20029;-88
2021/05/19 05:04:32;;;;;;;31.48;17.05;;;10.30;99.90;;;;;;6097335;23;20037;-88
2021/05/19 05:07:00;;;;;;;30.88;15.88;;;10.40;99.90;;;;;;6094807;23;20053;-88
2021/05/19 05:09:28;;;;;;;34.88;17.23;;;10.40;99.90;;;;;;6094123;23;20065;-88
2021/05/19 05:11:54;;;;;;;39.88;16.33;;;10.50;99.90;;;;;;6119607;23;20009;-89
2021/05/19 05:14:21;;;;;;;30.60;15.40;;;10.50;99.90;;;;;;6095179;23;20089;-88
2021/05/19 05:16:49;;;;;;;31.85;16.13;;;10.60;99.90;;;;;;6119881;23;20028;-88
2021/05/19 05:19:16;;;;;;;30.98;16.88;;;10.60;99.90;;;;;;6095014;23;20073;-88
2021/05/19 05:21:43;;;;;;;34.88;17.33;;;10.60;99.90;;;;;;6123683;23;20042;-88
2021/05/19 05:24:10;;;;;;;32.60;16.63;;;10.60;99.90;;;;;;6096823;23;20022;-88
2021/05/19 05:26:37;;;;;;;32.50;16.73;;;10.70;99.90;;;;;;6095140;23;20022;-88
2021/05/19 05:29:05;;;;;;;34.90;17.65;;;10.70;99.90;;;;;;6092386;23;20025;-88
2021/05/19 05:31:32;;;;;;;30.42;17.63;;;10.70;99.90;;;;;;6090822;23;20121;-89
2021/05/19 05:33:59;;;;;;;33.70;17.00;;;10.80;99.90;;;;;;6094046;23;20021;-87
2021/05/19 05:36:26;;;;;;;36.40;19.58;;;10.90;99.90;;;;;;6093983;23;20025;-87
2021/05/19 05:38:53;;;;;;;30.77;17.33;;;10.90;99.90;;;;;;6094668;23;20022;-86
2021/05/19 05:41:20;;;;;;;34.53;18.08;;;11.00;99.90;;;;;;6092663;23;20022;-86
2021/05/19 05:43:47;;;;;;;33.65;19.02;;;11.10;99.90;;;;;;6093777;23;20330;-86
2021/05/19 05:46:13;;;;;;;36.47;17.67;;;11.20;99.90;;;;;;6092147;23;20018;-86
2021/05/19 05:48:42;;;;;;;31.63;16.08;;;11.30;99.90;;;;;;6091107;23;20088;-86
2021/05/19 05:51:11;;;;;;;33.00;17.92;;;11.40;99.90;;;;;;6093335;23;20089;-86
2021/05/19 05:53:38;;;;;;;32.47;17.77;;;11.50;99.90;;;;;;6094610;23;20445;-85
2021/05/19 05:56:04;;;;;;;34.65;17.58;;;11.50;99.90;;;;;;6094046;23;20048;-86
2021/05/19 05:58:31;;;;;;;30.25;18.00;;;11.70;99.90;;;;;;6092685;23;20017;-86
2021/05/19 06:00:59;;;;;;;32.85;18.58;;;11.80;99.90;;;;;;6094526;23;20374;-87
2021/05/19 06:03:25;;;;;;;35.58;18.13;;;11.80;99.90;;;;;;6093859;23;20026;-87
2021/05/19 06:05:52;;;;;;;34.22;18.35;;;11.90;99.90;;;;;;6094669;23;20065;-87
2021/05/19 06:08:19;;;;;;;32.35;17.58;;;11.90;99.90;;;;;;6092182;23;20029;-86
2021/05/19 06:10:46;;;;;;;41.88;19.80;;;12.00;99.90;;;;;;6091367;23;20021;-87
2021/05/19 06:13:13;;;;;;;31.75;17.42;;;12.00;99.90;;;;;;6091031;23;20049;-87
2021/05/19 06:15:40;;;;;;;36.72;17.73;;;12.10;99.90;;;;;;6064446;23;20115;-87
2021/05/19 06:18:06;;;;;;;33.17;18.23;;;12.20;99.90;;;;;;6091376;23;20097;-87
2021/05/19 06:20:34;;;;;;;37.90;17.10;;;12.30;99.90;;;;;;6116677;23;20112;-87
2021/05/19 06:23:01;;;;;;;31.70;17.30;;;12.30;99.90;;;;;;6092882;23;20401;-87
2021/05/19 06:25:28;;;;;;;35.30;18.08;;;12.40;99.90;;;;;;6091121;23;20112;-87
2021/05/19 06:27:54;;;;;;;36.35;18.50;;;12.60;99.90;;;;;;6092587;23;20080;-87
2021/05/19 06:30:21;;;;;;;33.80;17.70;;;12.70;99.90;;;;;;6088614;23;20028;-87
2021/05/19 06:32:48;;;;;;;32.65;16.83;;;12.80;99.90;;;;;;6091302;23;20026;-86
2021/05/19 06:35:15;;;;;;;33.03;16.25;;;12.90;99.90;;;;;;6092643;23;20525;-85
2021/05/19 06:37:42;;;;;;;31.08;15.48;;;13.00;99.90;;;;;;6094812;23;20040;-86
2021/05/19 06:40:10;;;;;;;27.67;14.98;;;13.00;99.90;;;;;;6092191;23;20404;-87
2021/05/19 06:42:37;;;;;;;29.15;14.90;;;12.90;99.90;;;;;;6093306;23;20399;-86
2021/05/19 06:45:04;;;;;;;26.70;15.27;;;13.00;99.90;;;;;;6088768;23;20025;-86
2021/05/19 06:47:31;;;;;;;25.02;15.52;;;13.00;99.90;;;;;;6054583;23;20489;-87
2021/05/19 06:49:58;;;;;;;28.55;15.93;;;12.90;99.90;;;;;;6075796;23;20018;-87
2021/05/19 06:52:29;;;;;;;28.77;14.95;;;13.00;99.90;;;;;;6090683;23;20371;-87
2021/05/19 06:54:56;;;;;;;27.42;15.48;;;13.10;99.90;;;;;;6091573;23;20022;-87
2021/05/19 06:57:23;;;;;;;33.17;14.85;;;13.20;99.90;;;;;;6102878;23;20057;-87
2021/05/19 07:00:09;;;;;;;28.55;15.52;;;13.30;99.90;;;;;;6075408;23;20033;-86
2021/05/19 07:02:39;;;;;;;30.02;15.65;;;13.40;99.90;;;;;;6078352;23;20025;-85
2021/05/19 07:05:07;;;;;;;27.70;13.90;;;13.60;99.90;;;;;;6093064;23;20049;-85
2021/05/19 07:07:34;;;;;;;27.08;14.27;;;13.80;99.90;;;;;;6095106;23;20054;-85
2021/05/19 07:10:01;;;;;;;22.70;13.18;;;14.00;99.90;;;;;;6095730;23;20026;-85
2021/05/19 07:12:28;;;;;;;22.50;13.15;;;14.20;99.90;;;;;;6094252;23;20101;-85
2021/05/19 07:15:01;;;;;;;26.88;14.65;;;14.30;99.90;;;;;;6094863;23;20552;-85
2021/05/19 07:17:31;;;;;;;23.33;13.23;;;14.40;99.90;;;;;;6094723;23;20355;-85
2021/05/19 07:19:59;;;;;;;19.25;12.75;;;14.60;99.90;;;;;;6092200;23;20108;-85
2021/05/19 07:22:30;;;;;;;22.10;13.73;;;14.80;99.90;;;;;;6092286;23;20101;-85
2021/05/19 07:24:57;;;;;;;23.45;13.77;;;15.00;99.90;;;;;;6078141;23;20022;-86
2021/05/19 07:27:24;;;;;;;23.23;14.50;;;15.10;99.90;;;;;;6081914;23;20026;-86
2021/05/19 07:29:50;;;;;;;19.85;13.55;;;15.10;99.90;;;;;;6092510;23;20405;-85
2021/05/19 07:32:17;;;;;;;27.00;12.23;;;15.20;99.90;;;;;;6093496;23;20594;-86
2021/05/19 07:34:45;;;;;;;20.17;11.80;;;15.20;99.90;;;;;;6102311;23;20053;-86
2021/05/19 07:37:13;;;;;;;19.95;11.63;;;15.40;99.90;;;;;;6092738;23;20022;-86
2021/05/19 07:39:40;;;;;;;25.80;12.45;;;15.60;99.90;;;;;;6090468;23;20052;-86
2021/05/19 07:42:07;;;;;;;22.25;12.10;;;15.70;99.90;;;;;;6093846;23;20407;-86
2021/05/19 07:44:33;;;;;;;19.88;10.20;;;15.70;99.90;;;;;;6090531;23;20045;-86
2021/05/19 07:46:59;;;;;;;19.77;10.57;;;15.70;99.90;;;;;;6090756;23;20014;-86
2021/05/19 07:49:25;;;;;;;22.23;11.02;;;15.80;99.90;;;;;;6090356;23;20081;-86
2021/05/19 07:51:54;;;;;;;25.52;11.68;;;15.70;99.90;;;;;;6092474;23;20068;-85
2021/05/19 07:54:28;;;;;;;21.02;10.63;;;15.60;99.90;;;;;;6092553;23;20014;-85
2021/05/19 07:56:57;;;;;;;24.10;11.82;;;15.60;99.90;;;;;;6092629;23;20437;-85
2021/05/19 07:59:26;;;;;;;24.05;11.45;;;15.60;99.90;;;;;;6092045;23;20014;-85
2021/05/19 08:04:27;;;;;;;19.08;12.82;;;15.80;99.90;;;;;;6119017;23;20461;-86
2021/05/19 08:06:52;;;;;;;22.27;13.02;;;15.90;99.90;;;;;;6076673;23;20013;-85
2021/05/19 08:09:18;;;;;;;17.75;12.98;;;16.00;99.90;;;;;;6092130;23;20014;-85
2021/05/19 08:11:43;;;;;;;25.40;12.95;;;15.90;99.90;;;;;;6090504;23;20021;-86
2021/05/19 08:14:09;;;;;;;20.80;13.15;;;16.00;99.90;;;;;;6095041;23;20033;-85
2021/05/19 08:16:35;;;;;;;24.73;12.98;;;16.10;99.90;;;;;;6095688;23;20014;-85
2021/05/19 08:19:00;;;;;;;23.13;12.52;;;16.20;99.90;;;;;;6082593;23;20038;-86
2021/05/19 08:21:27;;;;;;;20.33;12.93;;;16.40;99.90;;;;;;6096532;23;20061;-86
2021/05/19 08:23:54;;;;;;;19.30;12.43;;;16.70;99.90;;;;;;6093912;23;20025;-86
2021/05/19 08:26:21;;;;;;;19.42;10.25;;;17.00;99.90;;;;;;6100073;23;21430;-86
2021/05/19 08:28:49;;;;;;;18.27;11.23;;;17.10;99.90;;;;;;6094806;23;20028;-85
2021/05/19 08:31:18;;;;;;;16.13;8.35;;;17.20;99.90;;;;;;6091440;23;20026;-85
2021/05/19 08:33:49;;;;;;;12.43;7.18;;;17.50;99.90;;;;;;6092899;23;20026;-85
2021/05/19 08:36:16;;;;;;;15.50;7.40;;;17.90;99.90;;;;;;6092788;23;20044;-85
2021/05/19 08:38:44;;;;;;;12.10;6.88;;;18.10;99.90;;;;;;6092053;23;20026;-85
2021/05/19 08:41:11;;;;;;;13.63;7.32;;;18.10;99.90;;;;;;6092392;23;20050;-86
2021/05/19 08:43:38;;;;;;;11.52;7.25;;;18.00;99.90;;;;;;6093790;23;20029;-86
2021/05/19 08:46:08;;;;;;;16.98;7.85;;;17.90;99.90;;;;;;6092958;23;20030;-86
2021/05/19 08:48:35;;;;;;;17.25;9.88;;;17.60;99.90;;;;;;6091240;23;20049;-86
2021/05/19 08:51:03;;;;;;;19.05;11.02;;;17.30;99.90;;;;;;6078974;23;20193;-86
2021/05/19 08:53:31;;;;;;;16.65;11.23;;;16.80;99.90;;;;;;6094216;23;20113;-85
2021/05/19 08:56:04;;;;;;;25.63;12.68;;;16.50;99.90;;;;;;6079136;23;20018;-85
2021/05/19 08:58:31;;;;;;;25.23;15.65;;;16.20;99.90;;;;;;6094534;23;20029;-85
2021/05/19 09:00:57;;;;;;;23.38;14.52;;;15.90;99.90;;;;;;6093729;23;20029;-86
2021/05/19 09:03:24;;;;;;;20.23;12.35;;;15.40;99.90;;;;;;6092903;23;20026;-86
2021/05/19 09:05:53;;;;;;;15.18;11.48;;;15.10;99.90;;;;;;6092986;23;20142;-86
2021/05/19 09:08:20;;;;;;;17.38;11.05;;;14.60;99.90;;;;;;6066986;23;20390;-85
2021/05/19 09:10:58;;;;;;;14.32;9.70;;;14.30;99.90;;;;;;6092260;23;20049;-86
2021/05/19 09:13:46;;;;;;;20.08;12.20;;;14.10;99.90;;;;;;6091320;23;20025;-86
2021/05/19 09:16:25;;;;;;;17.10;12.70;;;13.90;99.90;;;;;;6090350;23;20028;-87
2021/05/19 09:18:54;;;;;;;28.63;14.70;;;13.80;99.90;;;;;;6092809;23;20026;-86
2021/05/19 09:21:40;;;;;;;25.10;14.30;;;13.80;99.90;;;;;;6091978;23;20025;-85
2021/05/19 09:24:30;;;;;;;25.13;16.83;;;13.80;99.90;;;;;;6093279;23;20028;-86
2021/05/19 09:27:00;;;;;;;22.63;14.30;;;13.80;99.90;;;;;;6094843;23;20403;-85
2021/05/19 09:29:48;;;;;;;24.02;14.85;;;13.90;99.90;;;;;;6092645;23;20034;-84
2021/05/19 09:32:18;;;;;;;26.00;15.43;;;13.90;99.90;;;;;;6095621;23;20074;-84
2021/05/19 09:34:47;;;;;;;25.88;16.48;;;13.80;99.90;;;;;;6094160;23;20537;-85
2021/05/19 09:37:20;;;;;;;25.05;15.43;;;13.80;99.90;;;;;;6097064;23;22061;-85
2021/05/19 09:40:03;;;;;;;22.67;15.13;;;13.90;99.90;;;;;;6096713;23;20018;-85
2021/05/19 09:42:36;;;;;;;22.92;14.73;;;14.00;99.90;;;;;;6094600;23;20081;-85
2021/05/19 09:45:27;;;;;;;24.25;13.40;;;14.30;99.90;;;;;;6097535;23;20022;-85
2021/05/19 09:47:56;;;;;;;19.80;13.88;;;14.60;99.90;;;;;;6097380;23;20082;-85
2021/05/19 09:50:45;;;;;;;18.55;13.02;;;15.00;99.90;;;;;;6096103;23;20108;-85
2021/05/19 09:53:14;;;;;;;21.98;13.13;;;15.30;99.90;;;;;;6096199;23;20041;-84
2021/05/19 09:55:52;;;;;;;19.63;13.32;;;15.50;99.90;;;;;;6095081;23;20041;-84
2021/05/19 09:58:34;;;;;;;25.25;15.32;;;15.50;99.90;;;;;;6095760;23;20127;-84
2021/05/19 10:01:02;;;;;;;24.83;14.40;;;15.70;99.90;;;;;;6096246;23;20021;-84
2021/05/19 10:03:32;;;;;;;18.98;13.38;;;15.80;99.90;;;;;;6096310;23;20108;-84
2021/05/19 10:06:25;;;;;;;19.08;13.73;;;15.90;99.90;;;;;;6096573;23;20953;-84
2021/05/19 10:08:49;;;;;;;16.20;11.57;;;15.80;99.90;;;;;;6121068;23;20025;-84
2021/05/19 10:11:16;;;;;;;18.85;11.52;;;15.80;99.90;;;;;;6119425;23;20049;-84
2021/05/19 10:13:44;;;;;;;14.32;9.77;;;15.80;99.90;;;;;;6097146;23;20828;-84
2021/05/19 10:16:16;;;;;;;15.45;9.45;;;15.80;99.90;;;;;;6096416;23;20025;-84
2021/05/19 10:18:54;;;;;;;11.25;8.80;;;15.70;99.90;;;;;;6095843;23;20022;-83
2021/05/19 10:21:34;;;;;;;13.95;8.77;;;15.60;99.90;;;;;;6095104;23;20439;-84
2021/05/19 10:24:11;;;;;;;14.52;8.85;;;15.60;99.90;;;;;;6120335;23;20029;-84
2021/05/19 10:27:08;;;;;;;14.90;8.70;;;15.50;99.90;;;;;;6119584;23;20022;-84
2021/05/19 10:29:52;;;;;;;9.15;7.25;;;15.20;99.90;;;;;;6069216;23;20025;-83
2021/05/19 10:32:22;;;;;;;15.85;7.38;;;15.10;99.90;;;;;;6095392;23;20025;-83
2021/05/19 10:34:54;;;;;;;10.75;6.70;;;15.10;99.90;;;;;;6093619;23;20022;-84
2021/05/19 10:37:26;;;;;;;8.48;4.80;;;15.10;99.90;;;;;;6093009;23;20085;-83
2021/05/19 10:40:12;;;;;;;2.00;1.50;;;15.20;99.90;;;;;;6093929;23;20026;-84
2021/05/19 10:42:56;;;;;;;2.10;1.38;;;15.20;99.90;;;;;;6093995;23;20072;-84
2021/05/19 10:45:23;;;;;;;1.80;1.23;;;15.10;99.90;;;;;;6094468;23;20029;-84
2021/05/19 10:47:50;;;;;;;2.58;1.20;;;15.10;99.90;;;;;;6120566;23;20030;-84
2021/05/19 10:50:28;;;;;;;1.17;1.00;;;15.10;99.90;;;;;;6094172;23;20075;-84
2021/05/19 10:58:49;;;;;;;1.48;1.33;;;15.40;99.90;;;;;;6106898;23;20525;-84
2021/05/19 11:01:51;;;;;;;1.88;1.30;;;15.50;99.90;;;;;;6094925;23;20061;-84
2021/05/19 11:04:26;;;;;;;1.70;1.40;;;15.70;99.90;;;;;;6031767;23;20018;-85
2021/05/19 11:07:05;;;;;;;2.53;1.33;;;16.10;99.90;;;;;;6092987;23;20029;-84
2021/05/19 11:09:34;;;;;;;2.88;1.80;;;16.30;99.90;;;;;;6095307;23;20346;-85
2021/05/19 11:12:21;;;;;;;1.55;1.42;;;16.40;99.90;;;;;;6092211;23;20433;-84
2021/05/19 11:14:52;;;;;;;3.03;1.77;;;16.40;99.90;;;;;;6094886;23;20209;-83
2021/05/19 11:17:52;;;;;;;2.65;1.67;;;16.40;99.90;;;;;;6084645;23;20022;-84
2021/05/19 11:20:20;;;;;;;4.63;2.47;;;16.30;99.90;;;;;;6095829;23;20053;-83
2021/05/19 11:22:47;;;;;;;2.08;1.95;;;16.40;99.90;;;;;;6094083;23;20048;-84
2021/05/19 11:25:16;;;;;;;4.97;2.45;;;16.50;99.90;;;;;;6095030;23;20018;-84
2021/05/19 11:27:43;;;;;;;3.40;1.95;;;16.60;99.90;;;;;;6081196;23;20114;-84
2021/05/19 11:30:25;;;;;;;1.48;1.38;;;16.70;99.90;;;;;;6095490;23;20022;-84
2021/05/19 11:33:22;;;;;;;1.48;1.27;;;16.80;99.90;;;;;;6095651;23;20469;-84
2021/05/19 11:35:57;;;;;;;1.85;1.20;;;16.90;99.90;;;;;;6032662;23;20018;-84
2021/05/19 11:38:30;;;;;;;1.85;1.10;;;16.90;99.90;;;;;;6035991;23;20050;-84
2021/05/19 11:40:57;;;;;;;1.17;1.00;;;17.00;99.90;;;;;;6079000;23;20018;-84
2021/05/19 11:43:24;;;;;;;2.30;1.20;;;16.90;99.90;;;;;;6099670;23;20073;-84
2021/05/19 11:45:58;;;;;;;1.55;1.00;;;16.90;99.90;;;;;;6090038;23;20022;-84
2021/05/19 11:48:30;;;;;;;1.27;1.00;;;16.80;99.90;;;;;;6090761;23;20022;-85
2021/05/19 11:51:24;;;;;;;0.70;0.70;;;16.70;99.90;;;;;;6091386;23;20463;-84
2021/05/19 11:54:08;;;;;;;0.77;0.70;;;16.40;99.90;;;;;;6081642;23;20026;-84
2021/05/19 11:56:49;;;;;;;0.70;0.70;;;16.10;99.90;;;;;;6095374;23;20354;-83
2021/05/19 11:59:25;;;;;;;1.02;0.47;;;15.90;99.90;;;;;;6096303;23;20023;-84
2021/05/19 12:02:05;;;;;;;0.90;0.50;;;15.80;99.90;;;;;;6098932;23;20006;-85
2021/05/19 12:04:33;;;;;;;2.47;0.50;;;15.60;99.90;;;;;;6102267;23;20025;-84
2021/05/19 12:07:06;;;;;;;0.85;0.55;;;15.50;99.90;;;;;;6102783;23;20022;-85
2021/05/19 12:09:43;;;;;;;0.77;0.50;;;15.40;99.90;;;;;;6101651;23;20140;-84
2021/05/19 12:12:13;;;;;;;1.50;0.60;;;15.40;99.90;;;;;;6101143;23;20475;-84
2021/05/19 12:14:50;;;;;;;0.73;0.50;;;15.30;99.90;;;;;;6094763;23;20080;-84
2021/05/19 12:17:37;;;;;;;0.50;0.50;;;15.30;99.90;;;;;;6104649;23;20053;-84
2021/05/19 12:20:05;;;;;;;1.35;0.52;;;15.20;99.90;;;;;;6085502;23;20002;-84
2021/05/19 12:22:32;;;;;;;0.75;0.35;;;15.20;99.90;;;;;;6082985;23;20025;-84
2021/05/19 12:24:58;;;;;;;0.30;0.30;;;15.20;99.90;;;;;;6084770;23;20374;-84
2021/05/19 12:27:25;;;;;;;1.00;0.77;;;15.40;99.90;;;;;;6092230;23;20030;-84
2021/05/19 12:29:58;;;;;;;1.00;0.43;;;15.50;99.90;;;;;;6091843;23;20022;-85
2021/05/19 12:32:27;;;;;;;1.57;0.50;;;15.70;99.90;;;;;;6091520;23;20033;-84
2021/05/19 12:35:08;;;;;;;0.88;0.40;;;16.00;99.90;;;;;;6107397;23;20022;-84
2021/05/19 12:37:47;;;;;;;0.65;0.47;;;16.40;99.90;;;;;;6097285;23;20025;-84
2021/05/19 12:40:19;;;;;;;0.47;0.30;;;17.10;99.90;;;;;;6094667;23;20036;-84
2021/05/19 12:42:51;;;;;;;0.63;0.30;;;17.90;99.90;;;;;;6096742;23;20026;-85
2021/05/19 12:45:28;;;;;;;0.25;0.25;;;18.60;99.90;;;;;;6095379;23;20340;-85
2021/05/19 12:48:11;;;;;;;0.40;0.20;;;19.20;98.70;;;;;;6091885;23;20109;-83
2021/05/19 12:50:58;;;;;;;0.38;0.10;;;19.70;96.00;;;;;;6119872;23;20029;-84
2021/05/19 12:53:31;;;;;;;0.32;0.10;;;19.70;92.50;;;;;;6089955;23;20104;-80
2021/05/19 12:56:25;;;;;;;0.55;0.20;;;19.60;94.00;;;;;;6118704;23;20045;-82
2021/05/19 12:58:51;;;;;;;;;;;19.40;92.20;;;;;;6087730;23;20026;-82